Time;durP1;ratioP1;P1;durP2;ratioP2;P2;SDS_P1;SDS_P2;PMS_P1;PMS_P2;Temp;Humidity;BMP_temperature;BMP_pressure;BME280_temperature;BME280_humidity;BME280_pressure;Samples;Min_cycle;Max_cycle;Signal;HPM_P1;HPM_P2
2021/11/04 00:00:36;;;;;;;1.23;1.10;;;;;;;9.02;82.73;94019.63;5002176;28;20226;-84
2021/11/04 00:03:03;;;;;;;1.17;1.07;;;;;;;9.02;83.65;94019.63;5002771;28;20207;-84
2021/11/04 00:05:30;;;;;;;1.20;1.10;;;;;;;9.08;82.94;94008.53;5002163;28;20641;-84
2021/11/04 00:08:02;;;;;;;0.93;0.93;;;;;;;9.09;82.85;94020.38;5002254;28;20208;-84
2021/11/04 00:10:29;;;;;;;0.90;0.90;;;;;;;9.13;82.70;94018.19;5002284;28;20773;-84
2021/11/04 00:12:56;;;;;;;1.00;1.00;;;;;;;9.14;82.18;94017.19;5000712;28;20214;-84
2021/11/04 00:15:22;;;;;;;0.90;0.90;;;;;;;9.11;82.71;94012.47;4999548;28;20207;-84
2021/11/04 00:17:49;;;;;;;1.00;1.00;;;;;;;9.08;82.19;94015.44;4999688;28;20215;-84
2021/11/04 00:20:17;;;;;;;0.90;0.90;;;;;;;9.06;82.32;94018.22;4999251;28;20235;-84
2021/11/04 00:22:44;;;;;;;1.53;0.90;;;;;;;9.09;82.19;94010.09;4999678;28;20282;-84
2021/11/04 00:25:12;;;;;;;1.10;0.90;;;;;;;9.10;82.81;94010.88;4999028;28;20200;-84
2021/11/04 00:27:39;;;;;;;1.10;1.10;;;;;;;9.09;82.26;94014.44;4997949;28;20211;-84
2021/11/04 00:30:10;;;;;;;1.97;1.30;;;;;;;9.08;82.63;94015.44;4998672;28;20223;-84
2021/11/04 00:32:37;;;;;;;1.20;1.10;;;;;;;9.12;82.71;94011.47;4998421;28;20207;-83
2021/11/04 00:35:05;;;;;;;0.90;0.90;;;;;;;9.12;82.63;94017.41;4998657;28;20214;-84
2021/11/04 00:37:32;;;;;;;1.83;1.13;;;;;;;9.11;82.69;94017.59;4997735;28;20258;-84
2021/11/04 00:39:58;;;;;;;1.17;1.07;;;;;;;9.10;82.75;94013.44;4997755;28;20311;-83
2021/11/04 00:42:27;;;;;;;1.97;1.30;;;;;;;9.07;83.17;94016.44;5020224;23;20208;-84
2021/11/04 00:44:53;;;;;;;1.20;1.10;;;;;;;9.05;83.41;94019.19;5002639;28;20233;-84
2021/11/04 00:47:20;;;;;;;1.27;1.17;;;;;;;9.04;83.79;94012.50;4999021;28;20226;-84
2021/11/04 00:49:46;;;;;;;1.20;1.10;;;;;;;9.04;83.87;94002.25;5013824;28;20213;-84
2021/11/04 00:52:12;;;;;;;2.40;1.20;;;;;;;9.05;84.17;94006.34;5003259;28;20211;-83
2021/11/04 00:54:42;;;;;;;1.70;1.20;;;;;;;9.06;84.17;94005.38;4993941;28;20610;-83
2021/11/04 00:57:08;;;;;;;0.93;0.93;;;;;;;9.09;83.70;93997.25;4993504;28;20206;-83
2021/11/04 00:59:36;;;;;;;1.30;1.07;;;;;;;9.05;83.97;93993.53;4994104;28;20207;-81
2021/11/04 01:02:03;;;;;;;1.20;1.00;;;;;;;9.08;83.82;94000.81;4993405;28;20199;-83
2021/11/04 01:04:29;;;;;;;1.60;1.30;;;;;;;9.06;85.22;93997.66;4993036;28;20250;-84
2021/11/04 01:06:56;;;;;;;2.13;1.30;;;;;;;9.06;84.44;93997.66;4993412;28;20282;-83
2021/11/04 01:09:22;;;;;;;1.43;1.33;;;;;;;9.11;84.11;93994.50;4995518;28;20207;-85
2021/11/04 01:11:49;;;;;;;1.20;1.10;;;;;;;9.13;84.48;93995.06;4997180;28;20211;-83
2021/11/04 01:14:15;;;;;;;1.73;1.17;;;;;;;9.11;84.69;93999.63;4996872;28;20238;-84
2021/11/04 01:16:43;;;;;;;1.10;1.10;;;;;;;9.08;85.62;93998.25;4997109;28;20203;-79
2021/11/04 01:19:12;;;;;;;1.33;1.20;;;;;;;9.10;85.81;94003.97;4996995;28;20223;-84
2021/11/04 01:21:38;;;;;;;1.10;1.10;;;;;;;9.12;85.52;94002.00;4996650;28;20200;-82
2021/11/04 01:24:06;;;;;;;1.87;1.20;;;;;;;9.10;85.39;94001.41;4996800;28;20226;-84
2021/11/04 01:26:32;;;;;;;1.40;1.30;;;;;;;9.09;86.03;93991.34;4996682;28;20222;-83
2021/11/04 01:28:59;;;;;;;1.67;1.07;;;;;;;9.09;85.92;93997.25;4996746;28;20211;-83
2021/11/04 01:31:25;;;;;;;1.30;1.20;;;;;;;9.11;85.27;94020.94;4997206;28;20203;-81
2021/11/04 01:33:54;;;;;;;1.30;1.20;;;;;;;9.07;85.38;94016.44;4996791;28;20307;-83
2021/11/04 01:36:20;;;;;;;1.07;1.00;;;;;;;9.06;85.14;94013.06;4996376;28;20703;-84
2021/11/04 01:38:47;;;;;;;1.50;1.20;;;;;;;9.00;85.16;93999.31;4996806;28;20679;-81
2021/11/04 01:41:15;;;;;;;1.30;1.20;;;;;;;8.99;85.50;93986.66;4996796;28;20211;-84
2021/11/04 01:43:42;;;;;;;1.53;1.17;;;;;;;8.96;86.12;93993.00;4995885;28;20737;-84
2021/11/04 01:46:08;;;;;;;1.37;1.20;;;;;;;8.95;86.05;93981.16;4996885;28;20232;-84
2021/11/04 01:48:35;;;;;;;1.30;1.20;;;;;;;8.94;85.86;93965.97;4997252;28;20215;-82
2021/11/04 01:51:03;;;;;;;1.83;1.30;;;;;;;8.91;86.29;93969.72;4997695;28;20207;-84
2021/11/04 01:53:29;;;;;;;1.40;1.30;;;;;;;8.86;86.79;93961.06;4997226;28;20223;-80
2021/11/04 01:55:56;;;;;;;2.00;1.07;;;;;;;8.77;86.82;93967.44;4997284;28;20203;-83
2021/11/04 01:58:22;;;;;;;1.47;1.20;;;;;;;8.69;86.81;93976.13;4996725;28;20255;-83
2021/11/04 02:00:49;;;;;;;1.67;1.40;;;;;;;8.72;86.98;93992.91;4996592;28;20199;-81
2021/11/04 02:03:23;;;;;;;1.23;1.13;;;;;;;8.70;87.43;94000.81;4997776;28;20277;-81
2021/11/04 02:05:58;;;;;;;1.20;1.10;;;;;;;8.62;87.38;94009.53;4997110;28;20575;-80
2021/11/04 02:08:34;;;;;;;1.30;1.20;;;;;;;8.50;88.05;94016.25;4996861;28;20230;-83
2021/11/04 02:11:09;;;;;;;1.03;0.87;;;;;;;8.37;89.02;94005.25;4996389;28;20230;-80
2021/11/04 02:13:44;;;;;;;1.67;1.00;;;;;;;8.34;89.66;93998.75;4996962;28;20226;-84
2021/11/04 02:16:12;;;;;;;1.20;1.00;;;;;;;8.39;89.38;93996.38;4996794;28;20690;-83
2021/11/04 02:18:40;;;;;;;1.20;0.90;;;;;;;8.42;89.65;94006.25;4996847;28;20204;-83
2021/11/04 02:21:13;;;;;;;1.90;0.97;;;;;;;8.49;88.87;93988.25;4996414;28;20199;-81
2021/11/04 02:23:48;;;;;;;0.90;0.90;;;;;;;8.46;89.19;93974.09;4996953;28;20255;-81
2021/11/04 02:26:16;;;;;;;1.20;1.10;;;;;;;8.43;89.90;93963.44;4996782;28;20273;-83
2021/11/04 02:28:44;;;;;;;1.07;1.00;;;;;;;8.37;90.39;93969.38;4997384;28;20291;-83
2021/11/04 02:31:11;;;;;;;1.27;1.00;;;;;;;8.23;89.32;93981.41;4996892;28;20622;-81
2021/11/04 02:33:39;;;;;;;1.10;1.10;;;;;;;8.07;88.23;93967.25;4996326;28;20707;-83
2021/11/04 02:36:06;;;;;;;0.90;0.90;;;;;;;8.04;88.58;93969.44;4996610;28;20281;-81
2021/11/04 02:38:33;;;;;;;1.00;1.00;;;;;;;7.84;88.04;93959.22;4996620;28;20231;-83
2021/11/04 02:41:01;;;;;;;0.90;0.90;;;;;;;7.76;87.85;93951.72;4996573;28;20207;-83
2021/11/04 02:43:31;;;;;;;0.80;0.80;;;;;;;7.77;88.16;93948.97;4996338;28;20715;-80
2021/11/04 02:45:59;;;;;;;0.70;0.70;;;;;;;7.66;87.45;93954.72;4995955;28;20250;-81
2021/11/04 02:48:26;;;;;;;0.70;0.70;;;;;;;7.53;87.90;93967.50;4996030;28;20198;-83
2021/11/04 02:50:53;;;;;;;1.37;0.90;;;;;;;7.56;87.85;93965.34;4996798;28;20207;-81
2021/11/04 02:53:23;;;;;;;0.70;0.70;;;;;;;7.56;88.58;93978.13;4996655;28;20282;-82
2021/11/04 02:55:51;;;;;;;0.70;0.70;;;;;;;7.58;87.64;93977.94;4996632;28;20211;-79
2021/11/04 02:58:18;;;;;;;0.70;0.70;;;;;;;7.58;87.07;93977.94;4995959;28;20206;-83
2021/11/04 03:00:48;;;;;;;0.80;0.80;;;;;;;7.55;89.90;93989.38;4996307;28;20211;-83
2021/11/04 03:03:15;;;;;;;1.57;0.77;;;;;;;7.61;87.96;93987.78;4995760;28;20247;-83
2021/11/04 03:05:41;;;;;;;0.73;0.73;;;;;;;7.59;86.56;93985.44;4994894;28;20207;-82
2021/11/04 03:08:08;;;;;;;0.70;0.70;;;;;;;7.64;86.92;93977.16;4994789;28;20227;-83
2021/11/04 03:10:38;;;;;;;1.70;0.97;;;;;;;7.65;88.06;93973.63;4995434;28;20198;-83
2021/11/04 03:13:05;;;;;;;0.70;0.70;;;;;;;7.72;87.25;93958.22;4995858;28;20592;-82
2021/11/04 03:15:37;;;;;;;0.67;0.67;;;;;;;7.72;86.48;93968.47;4995835;28;20215;-84
2021/11/04 03:18:06;;;;;;;0.67;0.67;;;;;;;7.53;86.19;93959.81;4995117;28;20196;-82
2021/11/04 03:20:34;;;;;;;0.60;0.60;;;;;;;7.63;86.55;93955.88;4995945;28;20227;-80
2021/11/04 03:23:02;;;;;;;0.70;0.70;;;;;;;7.66;86.16;93949.59;4995597;28;20318;-83
2021/11/04 03:25:29;;;;;;;0.70;0.70;;;;;;;7.55;86.47;93962.97;4995058;28;20582;-83
2021/11/04 03:27:55;;;;;;;0.60;0.60;;;;;;;7.51;86.49;93962.56;4995057;28;20223;-83
2021/11/04 03:30:24;;;;;;;0.80;0.80;;;;;;;7.54;86.51;93957.06;4995565;28;20709;-79
2021/11/04 03:32:54;;;;;;;0.80;0.80;;;;;;;7.63;87.09;93962.78;4994672;28;20278;-83
2021/11/04 03:35:23;;;;;;;0.70;0.70;;;;;;;7.54;86.97;93957.06;4995003;28;20214;-81
2021/11/04 03:37:52;;;;;;;1.27;0.90;;;;;;;7.52;87.00;93958.22;4994610;28;20585;-83
2021/11/04 03:40:19;;;;;;;0.60;0.60;;;;;;;7.44;86.77;93961.78;4996522;28;20208;-83
2021/11/04 03:42:48;;;;;;;1.00;0.80;;;;;;;7.40;87.14;93975.19;4994463;28;20718;-84
2021/11/04 03:45:15;;;;;;;0.70;0.70;;;;;;;7.46;87.22;93989.78;4994627;28;20702;-82
2021/11/04 03:47:43;;;;;;;0.60;0.60;;;;;;;7.45;86.45;93993.31;4995235;28;20231;-81
2021/11/04 03:50:11;;;;;;;0.70;0.70;;;;;;;7.44;85.92;94007.88;4995528;28;20211;-81
2021/11/04 03:52:40;;;;;;;0.70;0.70;;;;;;;7.41;87.00;94004.91;4994305;28;20203;-80
2021/11/04 03:55:09;;;;;;;0.73;0.73;;;;;;;7.46;86.93;94002.56;4995018;28;20207;-80
2021/11/04 03:57:39;;;;;;;0.70;0.70;;;;;;;7.49;87.61;94017.53;4994603;28;20199;-82
2021/11/04 04:00:07;;;;;;;0.87;0.87;;;;;;;7.40;86.25;94018.72;4995393;28;20586;-80
2021/11/04 04:02:33;;;;;;;0.70;0.70;;;;;;;7.29;86.35;94027.75;4995163;28;20206;-81
2021/11/04 04:05:00;;;;;;;0.70;0.70;;;;;;;7.39;86.23;94028.16;4994357;28;20685;-83
2021/11/04 04:07:26;;;;;;;0.77;0.73;;;;;;;7.48;86.15;94027.00;4994808;28;20234;-83
2021/11/04 04:09:54;;;;;;;0.70;0.70;;;;;;;7.57;85.35;94033.50;4995184;28;20207;-84
2021/11/04 04:12:24;;;;;;;0.80;0.80;;;;;;;7.51;85.61;94041.16;4995499;28;20246;-80
2021/11/04 04:14:50;;;;;;;0.80;0.80;;;;;;;7.57;86.09;94045.50;4995507;28;20211;-82
2021/11/04 04:17:18;;;;;;;0.90;0.90;;;;;;;7.61;85.75;94041.56;4994792;28;20230;-80
2021/11/04 04:19:44;;;;;;;0.70;0.70;;;;;;;7.59;85.77;94038.41;4975623;28;20583;-80
2021/11/04 04:22:11;;;;;;;0.80;0.80;;;;;;;7.63;85.77;94037.06;4975636;28;20235;-83
2021/11/04 04:24:41;;;;;;;0.83;0.83;;;;;;;7.56;85.31;94044.72;4975452;28;20224;-80
2021/11/04 04:27:09;;;;;;;0.80;0.80;;;;;;;7.50;86.31;94047.28;4974819;28;20242;-82
2021/11/04 04:29:35;;;;;;;0.90;0.90;;;;;;;7.55;86.30;94045.69;4975646;28;20216;-83
2021/11/04 04:32:02;;;;;;;0.83;0.83;;;;;;;7.55;86.71;94045.69;4974618;28;20571;-82
2021/11/04 04:34:28;;;;;;;1.17;0.80;;;;;;;7.61;86.51;94044.94;4975235;28;20228;-80
2021/11/04 04:36:58;;;;;;;1.00;1.00;;;;;;;7.58;86.38;94047.88;4975237;28;20622;-82
2021/11/04 04:39:25;;;;;;;0.87;0.87;;;;;;;7.56;86.77;94039.59;4975495;28;20255;-82
2021/11/04 04:41:51;;;;;;;0.93;0.93;;;;;;;7.55;86.91;94048.25;4974374;28;20219;-82
2021/11/04 04:44:19;;;;;;;0.90;0.90;;;;;;;7.43;87.63;94065.19;4983629;28;20234;-79
2021/11/04 04:46:46;;;;;;;1.27;1.10;;;;;;;7.39;87.68;94079.34;4997222;28;20953;-81
2021/11/04 04:49:12;;;;;;;1.00;0.90;;;;;;;7.36;88.56;94094.31;4997858;28;20586;-83
2021/11/04 04:51:39;;;;;;;1.00;1.00;;;;;;;7.31;88.71;94101.81;4998138;28;20204;-84
2021/11/04 04:54:05;;;;;;;1.30;1.20;;;;;;;7.27;88.48;94089.38;4997138;28;20270;-82
2021/11/04 04:56:31;;;;;;;1.43;1.00;;;;;;;7.20;89.15;94092.88;4997464;28;20207;-82
2021/11/04 04:58:58;;;;;;;0.90;0.90;;;;;;;7.27;88.58;94074.03;4997053;28;20290;-84
2021/11/04 05:01:26;;;;;;;1.07;1.00;;;;;;;7.28;88.22;94051.78;4997135;28;20583;-81
2021/11/04 05:03:53;;;;;;;1.10;0.93;;;;;;;7.25;88.30;94044.47;4996681;28;20737;-79
2021/11/04 05:06:19;;;;;;;1.40;1.30;;;;;;;7.28;88.10;94064.56;4996481;28;20296;-80
2021/11/04 05:08:46;;;;;;;1.20;1.10;;;;;;;7.23;87.76;94069.47;4996473;28;20242;-82
2021/11/04 05:11:12;;;;;;;1.20;1.10;;;;;;;7.20;87.98;94062.97;4997637;28;20630;-81
2021/11/04 05:13:39;;;;;;;1.10;1.00;;;;;;;7.18;88.50;94069.25;4997180;28;20228;-82
2021/11/04 05:16:06;;;;;;;1.20;1.10;;;;;;;7.16;87.59;94078.91;4995764;28;20199;-82
2021/11/04 05:18:33;;;;;;;0.90;0.90;;;;;;;7.07;87.64;94080.06;4996948;28;20199;-82
2021/11/04 05:21:00;;;;;;;1.03;1.03;;;;;;;7.12;87.87;94093.09;4997814;28;20207;-83
2021/11/04 05:23:26;;;;;;;1.03;0.80;;;;;;;6.98;88.28;94094.00;4996192;28;20230;-84
2021/11/04 05:25:53;;;;;;;0.90;0.90;;;;;;;7.05;88.56;94105.06;4996789;28;20215;-81
2021/11/04 05:28:19;;;;;;;0.90;0.90;;;;;;;7.00;88.53;94105.63;4996335;28;20228;-83
2021/11/04 05:30:46;;;;;;;0.80;0.80;;;;;;;7.03;88.61;94102.69;4997156;28;20210;-83
2021/11/04 05:33:12;;;;;;;1.10;1.00;;;;;;;7.06;88.77;94098.97;4996660;28;20223;-81
2021/11/04 05:35:40;;;;;;;0.80;0.80;;;;;;;7.09;88.20;94106.25;4997160;28;20200;-82
2021/11/04 05:38:07;;;;;;;0.73;0.73;;;;;;;7.10;88.03;94113.75;4996686;28;20233;-81
2021/11/04 05:40:35;;;;;;;0.80;0.80;;;;;;;7.14;87.41;94124.34;4996648;28;20725;-82
2021/11/04 05:43:02;;;;;;;0.77;0.70;;;;;;;7.11;87.73;94120.44;4996651;28;20239;-82
2021/11/04 05:45:28;;;;;;;0.80;0.70;;;;;;;7.05;86.86;94130.63;4995792;28;20235;-82
2021/11/04 05:47:57;;;;;;;0.73;0.73;;;;;;;7.04;87.59;94134.19;4995882;28;20230;-81
2021/11/04 05:50:23;;;;;;;0.63;0.63;;;;;;;7.07;86.46;94139.72;4996557;28;20227;-82
2021/11/04 05:52:52;;;;;;;0.87;0.60;;;;;;;6.93;86.08;94143.16;4996611;28;20234;-84
2021/11/04 05:55:19;;;;;;;0.60;0.60;;;;;;;6.95;86.94;94146.31;4995813;28;20262;-80
2021/11/04 05:57:47;;;;;;;0.60;0.60;;;;;;;6.85;86.47;94156.13;4996333;28;20215;-82
2021/11/04 06:00:14;;;;;;;0.70;0.67;;;;;;;6.79;86.26;94170.44;4996351;28;20243;-81
2021/11/04 06:02:41;;;;;;;1.67;1.20;;;;;;;6.76;86.27;94160.59;4995897;28;20578;-82
2021/11/04 06:05:08;;;;;;;1.20;1.10;;;;;;;6.78;85.53;94175.75;4995809;28;20211;-81
2021/11/04 06:07:47;;;;;;;0.63;0.63;;;;;;;6.68;85.71;94180.41;4997500;28;20622;-78
2021/11/04 06:10:16;;;;;;;0.80;0.80;;;;;;;6.69;86.10;94174.31;5000076;28;20492;-80
2021/11/04 06:12:42;;;;;;;1.00;0.90;;;;;;;6.69;85.88;94166.66;4996123;28;20202;-84
2021/11/04 06:15:09;;;;;;;0.87;0.87;;;;;;;6.79;86.14;94167.88;4996556;28;20203;-84
2021/11/04 06:17:35;;;;;;;0.90;0.90;;;;;;;6.77;85.42;94164.72;4996361;28;20203;-82
2021/11/04 06:20:02;;;;;;;1.33;1.00;;;;;;;6.74;85.43;94180.44;4996408;28;20207;-82
2021/11/04 06:22:29;;;;;;;1.20;1.10;;;;;;;6.75;85.62;94189.69;4994894;28;20207;-83
2021/11/04 06:24:55;;;;;;;1.10;1.00;;;;;;;6.80;84.96;94197.59;4995649;28;20214;-83
2021/11/04 06:27:23;;;;;;;0.80;0.80;;;;;;;6.86;85.08;94196.06;4995048;28;20207;-83
2021/11/04 06:29:49;;;;;;;1.07;1.07;;;;;;;6.83;84.99;94194.69;4995592;28;20262;-83
2021/11/04 06:32:16;;;;;;;1.30;1.20;;;;;;;6.78;85.34;94191.09;4995330;28;20623;-84
2021/11/04 06:34:43;;;;;;;0.93;0.93;;;;;;;6.76;85.33;94193.03;4995221;28;20223;-81
2021/11/04 06:37:09;;;;;;;1.17;1.07;;;;;;;6.79;85.52;94196.03;4995405;28;20204;-81
2021/11/04 06:39:36;;;;;;;1.20;1.10;;;;;;;6.74;85.19;94197.56;4995353;28;20208;-82
2021/11/04 06:42:03;;;;;;;1.20;1.10;;;;;;;6.73;84.80;94207.03;4995518;28;20208;-84
2021/11/04 06:44:30;;;;;;;1.83;1.10;;;;;;;6.80;85.73;94196.81;4993898;28;20315;-84
2021/11/04 06:47:01;;;;;;;1.60;1.10;;;;;;;6.68;84.59;94206.00;4994220;28;20231;-80
2021/11/04 06:49:33;;;;;;;1.10;1.10;;;;;;;6.61;84.49;94207.69;4995081;28;20223;-84
2021/11/04 06:52:00;;;;;;;1.30;1.20;;;;;;;6.67;85.08;94206.97;4995183;28;20203;-79
2021/11/04 06:54:27;;;;;;;1.47;1.07;;;;;;;6.74;84.09;94213.69;4994197;28;20254;-81
2021/11/04 06:56:55;;;;;;;1.10;1.10;;;;;;;6.82;83.64;94217.88;4995646;28;20203;-83
2021/11/04 06:59:25;;;;;;;1.20;1.10;;;;;;;6.78;83.68;94225.13;4994844;28;20214;-83
2021/11/04 07:01:55;;;;;;;1.47;1.17;;;;;;;6.75;83.28;94224.72;4994615;28;20199;-85
2021/11/04 07:04:28;;;;;;;1.30;1.20;;;;;;;6.80;83.30;94245.41;4994952;28;20237;-80
2021/11/04 07:07:02;;;;;;;1.40;1.27;;;;;;;6.78;83.65;94248.16;4994876;28;20207;-81
2021/11/04 07:09:30;;;;;;;0.97;0.97;;;;;;;6.77;83.19;94256.00;4994681;28;20227;-81
2021/11/04 07:11:57;;;;;;;1.20;1.10;;;;;;;6.72;83.46;94261.69;4994920;28;20211;-81
2021/11/04 07:14:28;;;;;;;1.20;1.10;;;;;;;6.71;83.66;94274.66;4994346;28;20223;-81
2021/11/04 07:16:58;;;;;;;1.30;1.20;;;;;;;6.78;82.71;94272.94;4994279;28;20203;-83
2021/11/04 07:19:24;;;;;;;1.23;1.13;;;;;;;6.86;82.93;94265.13;4994627;28;20210;-81
2021/11/04 07:22:00;;;;;;;1.30;1.20;;;;;;;6.85;83.01;94266.13;4994868;28;20607;-83
2021/11/04 07:24:32;;;;;;;1.53;1.40;;;;;;;6.75;82.35;94268.97;4995000;28;20222;-81
2021/11/04 07:27:08;;;;;;;1.33;1.20;;;;;;;6.63;82.50;94282.47;4994586;28;20258;-79
2021/11/04 07:29:41;;;;;;;1.40;1.30;;;;;;;6.66;83.21;94288.00;4977529;28;20250;-83
2021/11/04 07:32:13;;;;;;;1.20;1.10;;;;;;;6.80;83.31;94297.38;4995167;28;20815;-80
2021/11/04 07:34:42;;;;;;;1.27;1.17;;;;;;;6.85;82.78;94300.16;4994478;28;20227;-81
2021/11/04 07:37:10;;;;;;;1.40;1.30;;;;;;;6.97;82.59;94295.31;4994534;28;20206;-81
2021/11/04 07:39:39;;;;;;;1.20;1.10;;;;;;;7.11;81.83;94297.00;4994034;28;20286;-84
2021/11/04 07:42:07;;;;;;;1.10;1.00;;;;;;;7.06;80.52;94299.34;4994748;28;20214;-84
2021/11/04 07:44:34;;;;;;;1.23;1.13;;;;;;;7.13;80.63;94305.28;4994551;28;20231;-81
2021/11/04 07:47:02;;;;;;;1.00;1.00;;;;;;;7.10;80.64;94305.66;4993420;28;20254;-84
2021/11/04 07:49:29;;;;;;;2.10;1.00;;;;;;;7.03;80.45;94314.25;4993845;28;20230;-84
2021/11/04 07:52:00;;;;;;;1.20;1.10;;;;;;;7.08;81.30;94314.50;4993912;28;20214;-82
2021/11/04 07:54:27;;;;;;;1.40;1.30;;;;;;;7.11;81.17;94322.59;4994026;28;20227;-82
2021/11/04 07:56:53;;;;;;;1.03;0.97;;;;;;;7.03;80.62;94327.84;4994312;28;20211;-82
2021/11/04 07:59:19;;;;;;;1.03;0.97;;;;;;;6.91;81.42;94344.69;4993434;28;20207;-83
2021/11/04 08:01:46;;;;;;;1.37;0.90;;;;;;;6.94;81.15;94347.66;4993984;28;20266;-84
2021/11/04 08:04:12;;;;;;;0.73;0.73;;;;;;;6.89;81.57;94346.63;4993752;28;20220;-82
2021/11/04 08:06:40;;;;;;;0.90;0.90;;;;;;;6.99;81.13;94348.88;4994340;28;20199;-81
2021/11/04 08:09:06;;;;;;;0.70;0.70;;;;;;;6.98;80.39;94345.50;4994389;28;20234;-80
2021/11/04 08:11:33;;;;;;;0.80;0.80;;;;;;;6.94;80.93;94355.31;4994181;28;20207;-83
2021/11/04 08:13:59;;;;;;;0.80;0.80;;;;;;;6.90;80.33;94354.13;4992954;28;20227;-83
2021/11/04 08:16:26;;;;;;;0.80;0.80;;;;;;;6.89;80.95;94356.88;4993827;28;20200;-84
2021/11/04 08:18:52;;;;;;;1.00;0.80;;;;;;;6.92;80.19;94356.50;4997197;28;20234;-81
2021/11/04 08:21:18;;;;;;;0.80;0.80;;;;;;;6.96;79.79;94357.69;4997480;28;20614;-82
2021/11/04 08:23:46;;;;;;;1.00;0.90;;;;;;;7.07;79.96;94366.66;4998015;28;20227;-82
2021/11/04 08:26:15;;;;;;;0.87;0.80;;;;;;;7.14;79.94;94365.72;4997687;28;20231;-81
2021/11/04 08:28:41;;;;;;;0.80;0.80;;;;;;;7.10;80.07;94379.88;4997851;28;20223;-82
2021/11/04 08:31:08;;;;;;;0.70;0.70;;;;;;;7.03;80.22;94376.47;4997425;28;20335;-84
2021/11/04 08:33:34;;;;;;;0.73;0.73;;;;;;;7.05;79.69;94369.41;4998234;28;20590;-81
2021/11/04 08:36:01;;;;;;;1.17;0.73;;;;;;;6.96;79.91;94380.72;4997837;28;20671;-84
2021/11/04 08:38:27;;;;;;;0.97;0.90;;;;;;;7.04;79.76;94374.69;4998308;28;20203;-82
2021/11/04 08:40:55;;;;;;;0.70;0.70;;;;;;;7.02;79.98;94389.44;4998042;28;20207;-83
2021/11/04 08:43:22;;;;;;;0.70;0.70;;;;;;;6.89;80.26;94390.91;4997703;28;21062;-83
2021/11/04 08:45:48;;;;;;;0.80;0.80;;;;;;;6.76;81.04;94392.53;4997160;28;20230;-84
2021/11/04 08:48:18;;;;;;;0.73;0.73;;;;;;;6.74;81.18;94397.03;4997769;28;20223;-81
2021/11/04 08:50:44;;;;;;;0.70;0.70;;;;;;;6.70;80.73;94406.88;4997476;28;20211;-82
2021/11/04 08:53:11;;;;;;;0.70;0.70;;;;;;;6.75;81.12;94409.66;4997963;28;20245;-79
2021/11/04 08:55:38;;;;;;;0.70;0.70;;;;;;;6.88;81.04;94414.13;4997748;28;20207;-80
2021/11/04 08:58:06;;;;;;;0.70;0.70;;;;;;;6.97;80.69;94414.78;4997149;28;20211;-84
2021/11/04 09:00:32;;;;;;;0.87;0.87;;;;;;;6.98;79.97;94429.97;4997744;28;20215;-82
2021/11/04 09:02:59;;;;;;;0.73;0.73;;;;;;;6.90;79.45;94432.66;4997258;28;20220;-84
2021/11/04 09:05:25;;;;;;;0.80;0.80;;;;;;;7.05;79.93;94435.94;4996689;28;20199;-80
2021/11/04 09:07:51;;;;;;;0.83;0.80;;;;;;;7.21;79.55;94440.00;4996991;28;20614;-82
2021/11/04 09:10:21;;;;;;;0.70;0.70;;;;;;;7.14;78.61;94437.38;4996810;28;20223;-83
2021/11/04 09:12:48;;;;;;;0.80;0.80;;;;;;;7.08;78.85;94437.34;4996934;28;20235;-84
2021/11/04 09:15:15;;;;;;;0.90;0.90;;;;;;;7.15;78.69;94443.28;4997037;28;20207;-83
2021/11/04 09:17:43;;;;;;;0.73;0.73;;;;;;;7.12;78.41;94452.13;4997233;28;20207;-84
2021/11/04 09:20:12;;;;;;;0.80;0.80;;;;;;;7.10;78.42;94451.53;4996302;28;20203;-82
2021/11/04 09:22:38;;;;;;;0.90;0.90;;;;;;;7.23;78.54;94451.66;4996698;28;20227;-83
2021/11/04 09:25:07;;;;;;;1.30;0.73;;;;;;;7.26;77.87;94456.41;4997509;28;20567;-82
2021/11/04 09:27:33;;;;;;;0.80;0.80;;;;;;;7.43;77.04;94456.16;4996613;28;20211;-85
2021/11/04 09:30:01;;;;;;;0.80;0.80;;;;;;;7.61;77.65;94459.06;4995351;28;20235;-84
2021/11/04 09:32:28;;;;;;;0.90;0.90;;;;;;;7.68;76.43;94470.16;4996684;28;20210;-83
2021/11/04 09:34:55;;;;;;;0.80;0.80;;;;;;;7.67;75.91;94476.25;4997166;28;20555;-83
2021/11/04 09:37:23;;;;;;;0.83;0.83;;;;;;;7.70;76.16;94469.97;4997033;28;20214;-85
2021/11/04 09:39:49;;;;;;;0.70;0.70;;;;;;;7.82;75.71;94484.63;4997224;28;20250;-84
2021/11/04 09:42:17;;;;;;;0.70;0.70;;;;;;;7.69;75.52;94489.66;4996522;28;20242;-82
2021/11/04 09:44:44;;;;;;;1.17;0.80;;;;;;;7.73;75.66;94490.84;4995757;28;20230;-85
2021/11/04 09:47:10;;;;;;;4.00;0.90;;;;;;;7.82;76.30;94501.78;4996231;28;20359;-84
2021/11/04 09:49:39;;;;;;;0.90;0.90;;;;;;;7.92;75.65;94504.78;4996947;28;20223;-80
2021/11/04 09:52:06;;;;;;;0.90;0.90;;;;;;;7.94;75.44;94507.97;4995608;28;20200;-81
2021/11/04 09:54:32;;;;;;;0.90;0.80;;;;;;;7.92;75.95;94509.91;4996942;28;20246;-83
2021/11/04 09:56:59;;;;;;;1.10;0.97;;;;;;;7.72;75.06;94506.41;4996547;28;20607;-80
2021/11/04 09:59:25;;;;;;;0.90;0.90;;;;;;;7.88;75.91;94509.53;4996989;28;20782;-83
2021/11/04 10:01:51;;;;;;;0.90;0.90;;;;;;;8.23;74.92;94510.34;4996108;28;20612;-82
2021/11/04 10:04:36;;;;;;;1.47;0.90;;;;;;;8.25;74.39;94526.34;4996191;28;20224;-84
2021/11/04 10:07:06;;;;;;;0.97;0.97;;;;;;;8.22;74.05;94529.25;4997093;28;20522;-84
2021/11/04 10:09:32;;;;;;;0.90;0.90;;;;;;;8.22;74.05;94520.78;4995858;28;20232;-83
2021/11/04 10:12:05;;;;;;;1.10;1.10;;;;;;;8.22;73.88;94520.78;4997402;28;20211;-79
2021/11/04 10:14:32;;;;;;;1.00;1.00;;;;;;;8.22;74.08;94524.13;4998135;28;20219;-83
2021/11/04 10:16:59;;;;;;;1.00;1.00;;;;;;;8.25;73.83;94528.91;4999150;28;20210;-82
2021/11/04 10:19:38;;;;;;;1.47;1.07;;;;;;;8.19;73.71;94537.31;4996709;28;20235;-84
2021/11/04 10:22:06;;;;;;;0.90;0.90;;;;;;;8.12;73.63;94533.13;4996064;28;20207;-84
2021/11/04 10:24:33;;;;;;;1.17;1.17;;;;;;;8.24;73.68;94534.22;4995703;28;20301;-83
2021/11/04 10:26:59;;;;;;;0.93;0.90;;;;;;;8.35;73.04;94541.41;4995756;28;20266;-79
2021/11/04 10:29:27;;;;;;;1.03;0.93;;;;;;;8.51;72.81;94535.16;4995470;28;20223;-81
2021/11/04 10:31:58;;;;;;;1.00;1.00;;;;;;;8.70;71.63;94531.91;4994910;28;20274;-81
2021/11/04 10:34:27;;;;;;;1.00;1.00;;;;;;;8.75;71.92;94537.28;4995618;28;20227;-84
2021/11/04 10:36:55;;;;;;;1.30;1.20;;;;;;;8.79;72.36;94551.31;4994604;28;20223;-82
2021/11/04 10:39:28;;;;;;;1.27;1.10;;;;;;;8.78;71.61;94539.47;4994650;28;20219;-84
2021/11/04 10:41:56;;;;;;;1.30;1.20;;;;;;;8.68;70.70;94528.75;4994287;28;20675;-84
2021/11/04 10:44:23;;;;;;;1.97;1.23;;;;;;;8.69;71.12;94532.88;4993954;28;20235;-82
2021/11/04 10:46:52;;;;;;;1.40;1.30;;;;;;;8.66;70.62;94541.75;4994008;28;20260;-85
2021/11/04 10:49:21;;;;;;;1.40;1.30;;;;;;;8.70;70.80;94528.56;4994545;28;20699;-81
2021/11/04 10:51:57;;;;;;;1.33;1.20;;;;;;;8.80;70.58;94534.13;4994228;28;20207;-82
2021/11/04 10:54:24;;;;;;;1.53;1.40;;;;;;;8.84;69.80;94533.56;4994206;28;20223;-84
2021/11/04 10:56:54;;;;;;;1.30;1.20;;;;;;;8.90;69.39;94542.25;4994308;28;20203;-82
2021/11/04 10:59:21;;;;;;;1.30;1.23;;;;;;;8.89;68.83;94546.59;4994397;28;20199;-82
2021/11/04 11:01:49;;;;;;;1.50;1.30;;;;;;;8.68;68.52;94558.72;4994574;28;20204;-84
2021/11/04 11:04:18;;;;;;;1.30;1.20;;;;;;;8.72;68.95;94552.25;4994123;28;20223;-81
2021/11/04 11:06:46;;;;;;;1.40;1.30;;;;;;;8.81;68.55;94531.38;4994063;28;20785;-84
2021/11/04 11:09:14;;;;;;;1.30;1.20;;;;;;;8.82;68.38;94545.00;4994080;28;20590;-83
2021/11/04 11:11:43;;;;;;;1.10;1.10;;;;;;;8.75;68.38;94552.66;4994322;28;20671;-82
2021/11/04 11:14:11;;;;;;;2.67;1.20;;;;;;;8.68;67.97;94567.22;4994067;28;20231;-83
2021/11/04 11:16:42;;;;;;;1.40;1.30;;;;;;;8.71;68.72;94564.28;4994344;28;20199;-83
2021/11/04 11:19:10;;;;;;;1.30;1.20;;;;;;;8.61;68.55;94574.91;4994149;28;20219;-82
2021/11/04 11:21:40;;;;;;;1.40;1.30;;;;;;;8.56;68.26;94577.25;4993835;28;20203;-83
2021/11/04 11:24:10;;;;;;;1.13;1.03;;;;;;;8.62;68.40;94581.63;4993485;28;20220;-84
2021/11/04 11:26:37;;;;;;;1.10;1.10;;;;;;;8.73;68.68;94574.38;4993740;28;20203;-83
2021/11/04 11:29:04;;;;;;;1.07;1.07;;;;;;;8.88;68.68;94588.66;4994155;28;20219;-85
2021/11/04 11:31:32;;;;;;;1.37;1.27;;;;;;;8.66;68.09;94600.78;4993309;28;20723;-82
2021/11/04 11:34:19;;;;;;;1.13;1.03;;;;;;;8.55;68.50;94591.03;4993774;28;20226;-82
2021/11/04 11:37:14;;;;;;;1.40;1.00;;;;;;;8.56;69.53;94600.31;4993323;28;20207;-82
2021/11/04 11:39:42;;;;;;;1.10;1.00;;;;;;;8.43;69.06;94607.16;4993150;28;20219;-81
2021/11/04 11:42:11;;;;;;;0.90;0.90;;;;;;;8.41;69.13;94611.66;4993762;28;20204;-81
2021/11/04 11:44:41;;;;;;;1.00;1.00;;;;;;;8.41;68.92;94607.34;4992724;28;20231;-81